Time;durP1;ratioP1;P1;durP2;ratioP2;P2;SDS_P1;SDS_P2;PMS_P1;PMS_P2;Temp;Humidity;BMP_temperature;BMP_pressure;BME280_temperature;BME280_humidity;BME280_pressure;Samples;Min_cycle;Max_cycle;Signal;HPM_P1;HPM_P2
2021/07/13 00:01:39;;;;;;;1.70;1.60;;;;;;;17.06;74.29;100111.59;6220976;22;20443;-77
2021/07/13 00:04:23;;;;;;;1.58;1.48;;;;;;;17.05;74.29;100110.75;6270480;22;20320;-76
2021/07/13 00:06:52;;;;;;;1.95;1.85;;;;;;;17.07;74.36;100104.94;6270763;22;20012;-75
2021/07/13 00:09:19;;;;;;;2.17;2.08;;;;;;;17.08;74.39;100112.06;6273987;22;20008;-76
2021/07/13 00:11:46;;;;;;;2.03;1.92;;;;;;;17.10;74.54;100118.09;6270543;22;20020;-76
2021/07/13 00:14:17;;;;;;;1.92;1.83;;;;;;;17.07;74.35;100107.69;6272241;22;20027;-76
2021/07/13 00:16:49;;;;;;;2.90;2.80;;;;;;;17.08;74.49;100114.81;6271344;22;20008;-76
2021/07/13 00:19:21;;;;;;;2.45;2.35;;;;;;;17.08;74.45;100109.31;6239957;22;20004;-76
2021/07/13 00:21:51;;;;;;;1.50;1.50;;;;;;;17.11;74.51;100114.19;6272250;22;20078;-76
2021/07/13 00:24:27;;;;;;;1.27;1.27;;;;;;;17.13;74.57;100105.59;6271270;22;20003;-76
2021/07/13 00:27:05;;;;;;;3.17;3.08;;;;;;;17.18;74.42;100113.75;6266223;22;20030;-76
2021/07/13 00:29:38;;;;;;;2.20;2.10;;;;;;;17.22;74.46;100115.53;6277833;22;20012;-75
2021/07/13 00:32:04;;;;;;;2.35;2.25;;;;;;;17.23;74.47;100117.19;6251195;22;20008;-76
2021/07/13 00:34:30;;;;;;;2.63;2.53;;;;;;;17.27;74.60;100107.13;6265774;22;20004;-75
2021/07/13 00:37:01;;;;;;;2.25;2.15;;;;;;;17.31;74.46;100109.25;6277328;22;20007;-75
2021/07/13 00:39:49;;;;;;;2.33;2.22;;;;;;;17.43;74.33;100106.69;6250988;22;20008;-76
2021/07/13 00:42:17;;;;;;;2.95;2.15;;;;;;;17.52;74.36;100112.25;6278957;22;20008;-76
2021/07/13 00:44:49;;;;;;;2.30;2.20;;;;;;;17.59;74.09;100118.94;6274327;22;20086;-76
2021/07/13 00:47:24;;;;;;;2.45;2.35;;;;;;;17.65;74.05;100121.56;6275816;22;20114;-74
2021/07/13 00:49:52;;;;;;;1.60;1.60;;;;;;;17.69;73.92;100114.25;6271030;22;20003;-74
2021/07/13 00:52:23;;;;;;;1.73;1.63;;;;;;;17.75;73.99;100115.72;6277695;22;20003;-76
2021/07/13 00:55:01;;;;;;;1.17;1.17;;;;;;;17.87;73.82;100123.41;6276430;22;20004;-76
2021/07/13 00:57:32;;;;;;;1.80;1.70;;;;;;;17.91;73.26;100114.16;6279127;22;20010;-76
2021/07/13 00:59:58;;;;;;;2.20;2.10;;;;;;;17.94;73.25;100113.50;6249991;22;20004;-75
2021/07/13 01:02:37;;;;;;;2.25;2.15;;;;;;;17.91;73.57;100103.09;6275570;22;20034;-75
2021/07/13 01:05:15;;;;;;;4.65;3.08;;;;;;;18.07;73.03;100119.22;6274317;22;20003;-75
2021/07/13 01:08:10;;;;;;;2.13;2.03;;;;;;;18.16;73.29;100125.56;6272310;22;20011;-75
2021/07/13 01:11:22;;;;;;;1.55;1.48;;;;;;;18.19;72.09;100124.91;6287030;22;20011;-77
2021/07/13 01:14:27;;;;;;;5.05;2.28;;;;;;;18.18;72.13;100128.00;6235602;22;20065;-76
2021/07/13 01:17:16;;;;;;;2.15;2.05;;;;;;;18.16;71.99;100120.03;6282167;22;20033;-75
2021/07/13 01:20:15;;;;;;;2.20;2.10;;;;;;;18.15;72.73;100121.19;6301439;22;20060;-75
2021/07/13 01:22:55;;;;;;;1.98;1.88;;;;;;;18.11;72.43;100128.50;6282008;22;20033;-75
2021/07/13 01:25:41;;;;;;;2.85;2.65;;;;;;;18.06;71.83;100132.25;6306886;22;20078;-74
2021/07/13 01:28:41;;;;;;;3.45;3.15;;;;;;;18.02;72.41;100130.44;6309094;22;20461;-75
2021/07/13 01:31:19;;;;;;;2.45;2.35;;;;;;;17.96;72.80;100122.31;6279603;22;20007;-75
2021/07/13 01:34:09;;;;;;;3.33;3.13;;;;;;;18.02;72.09;100135.97;6287954;22;19999;-75
2021/07/13 01:36:55;;;;;;;3.35;3.25;;;;;;;17.98;72.49;100140.53;6316677;22;20007;-76
2021/07/13 01:39:25;;;;;;;4.03;3.63;;;;;;;17.91;71.96;100139.03;6314836;22;20025;-76
2021/07/13 01:42:01;;;;;;;3.85;3.47;;;;;;;17.87;72.35;100145.53;6319087;22;20500;-76
2021/07/13 01:44:32;;;;;;;2.92;2.83;;;;;;;17.82;72.36;100138.19;6287080;22;19999;-76
2021/07/13 01:46:58;;;;;;;1.80;1.77;;;;;;;17.83;72.13;100137.06;6317020;22;20089;-76
2021/07/13 01:49:31;;;;;;;1.83;1.73;;;;;;;17.86;72.83;100139.19;6303933;22;20029;-76
2021/07/13 01:52:02;;;;;;;2.20;2.10;;;;;;;17.90;72.25;100145.72;6309836;22;20013;-75
2021/07/13 01:54:33;;;;;;;3.00;2.90;;;;;;;17.90;72.68;100140.19;6306382;22;20034;-75
2021/07/13 01:57:05;;;;;;;3.60;3.38;;;;;;;17.89;72.51;100143.25;6308020;22;20006;-75
2021/07/13 01:59:40;;;;;;;4.00;3.80;;;;;;;17.86;72.64;100154.94;6278543;22;20018;-76
2021/07/13 02:02:13;;;;;;;4.00;3.80;;;;;;;17.82;72.87;100154.78;6279751;22;20068;-74
2021/07/13 02:04:56;;;;;;;2.90;2.80;;;;;;;17.82;72.21;100149.25;6304476;22;19999;-75
2021/07/13 02:07:34;;;;;;;3.50;3.30;;;;;;;17.87;72.61;100156.59;6279034;22;20011;-75
2021/07/13 02:10:00;;;;;;;4.55;3.55;;;;;;;17.82;72.35;100152.03;6309145;22;20029;-76
2021/07/13 02:12:37;;;;;;;3.80;3.63;;;;;;;17.85;72.20;100159.66;6272940;22;20103;-76
2021/07/13 02:15:07;;;;;;;3.88;3.67;;;;;;;17.84;72.63;100158.03;6276752;22;19999;-76
2021/07/13 02:17:50;;;;;;;2.95;2.85;;;;;;;17.82;72.48;100153.97;6276857;22;20012;-75
2021/07/13 02:20:25;;;;;;;2.38;2.28;;;;;;;17.86;72.43;100157.72;6279405;22;20007;-75
2021/07/13 02:22:51;;;;;;;2.88;2.78;;;;;;;17.90;72.39;100167.03;6278625;22;20014;-74
2021/07/13 02:25:27;;;;;;;3.40;3.30;;;;;;;17.89;72.09;100152.38;6277531;22;20003;-74
2021/07/13 02:28:06;;;;;;;4.32;4.07;;;;;;;17.92;72.42;100153.72;6251457;22;20035;-75
2021/07/13 02:30:36;;;;;;;4.03;3.75;;;;;;;17.89;71.97;100159.84;6280435;22;20012;-74
2021/07/13 02:33:26;;;;;;;4.38;4.05;;;;;;;17.87;71.91;100168.47;6249841;22;20011;-74
2021/07/13 02:35:55;;;;;;;3.50;3.38;;;;;;;17.84;72.16;100160.78;6275159;22;20008;-76
2021/07/13 02:38:24;;;;;;;3.83;3.60;;;;;;;17.86;71.93;100157.72;6277979;22;20015;-75
2021/07/13 02:40:54;;;;;;;3.13;3.03;;;;;;;17.85;72.66;100162.44;6280811;22;20011;-77
2021/07/13 02:43:53;;;;;;;5.25;4.93;;;;;;;17.87;72.08;100165.72;6277821;22;20034;-75
2021/07/13 02:46:29;;;;;;;5.13;4.30;;;;;;;17.87;72.16;100160.19;6275618;22;20114;-76
2021/07/13 02:49:17;;;;;;;7.80;6.10;;;;;;;17.86;72.24;100161.31;6271133;22;20004;-76
2021/07/13 02:51:47;;;;;;;6.10;5.45;;;;;;;17.79;71.74;100169.25;6279888;22;20027;-75
2021/07/13 02:54:29;;;;;;;6.05;5.60;;;;;;;17.72;71.71;100160.63;6279238;22;20023;-75
2021/07/13 02:57:10;;;;;;;5.82;5.32;;;;;;;17.67;72.07;100157.97;6277207;22;20023;-75
2021/07/13 02:59:43;;;;;;;6.10;5.80;;;;;;;17.60;72.12;100164.78;6279280;22;20004;-75
2021/07/13 03:02:17;;;;;;;7.15;6.72;;;;;;;17.56;72.42;100163.81;6275923;22;20025;-75
2021/07/13 03:04:45;;;;;;;6.43;6.13;;;;;;;17.51;72.88;100166.72;6277661;22;20074;-77
2021/07/13 03:07:18;;;;;;;5.65;5.35;;;;;;;17.47;72.86;100162.97;6281685;22;20074;-77
2021/07/13 03:09:51;;;;;;;6.93;6.38;;;;;;;17.44;73.04;100166.38;6281986;22;20010;-77
2021/07/13 03:12:22;;;;;;;6.78;6.38;;;;;;;17.35;73.51;100158.03;6313005;22;20079;-76
2021/07/13 03:14:57;;;;;;;6.68;6.35;;;;;;;17.38;73.11;100162.13;6315753;22;20009;-76
2021/07/13 03:17:27;;;;;;;7.50;6.90;;;;;;;17.35;73.11;100157.22;6289936;22;20071;-76
2021/07/13 03:20:03;;;;;;;7.57;6.85;;;;;;;17.35;73.33;100163.56;6289751;22;20014;-78
2021/07/13 03:22:39;;;;;;;6.63;5.30;;;;;;;17.30;73.54;100149.06;6317306;22;19999;-77
2021/07/13 03:25:10;;;;;;;7.45;6.75;;;;;;;17.15;73.24;100142.81;6312435;22;20613;-77
2021/07/13 03:27:42;;;;;;;10.00;7.10;;;;;;;17.19;73.53;100159.59;6290861;22;20829;-77
2021/07/13 03:30:08;;;;;;;6.18;5.95;;;;;;;17.17;73.96;100168.19;6292263;22;20003;-76
2021/07/13 03:32:35;;;;;;;8.02;7.40;;;;;;;17.13;73.81;100167.19;6323112;22;20039;-77
2021/07/13 03:35:02;;;;;;;6.85;6.40;;;;;;;17.10;73.82;100167.84;6323746;22;20026;-77
2021/07/13 03:37:28;;;;;;;5.95;5.45;;;;;;;17.07;74.27;100168.47;6324766;22;20033;-77
2021/07/13 03:39:54;;;;;;;6.03;5.53;;;;;;;17.05;74.29;100165.19;6324488;22;20003;-77
2021/07/13 03:42:22;;;;;;;4.82;4.53;;;;;;;17.00;74.02;100162.56;6326273;22;20007;-78
2021/07/13 03:44:48;;;;;;;6.50;6.20;;;;;;;16.98;74.08;100164.81;6324556;22;20003;-77
2021/07/13 03:47:14;;;;;;;4.78;4.50;;;;;;;16.93;74.29;100158.28;6294159;22;20007;-78
2021/07/13 03:49:40;;;;;;;5.55;5.25;;;;;;;16.91;74.05;100165.28;6298107;22;20010;-79
2021/07/13 03:52:06;;;;;;;4.80;4.60;;;;;;;16.86;74.59;100163.41;6323324;22;20330;-78
2021/07/13 03:54:31;;;;;;;5.50;4.82;;;;;;;16.89;74.24;100167.53;6283027;22;20011;-79
2021/07/13 03:56:57;;;;;;;5.60;5.30;;;;;;;16.87;74.55;100170.59;6280256;22;20022;-79
2021/07/13 03:59:22;;;;;;;7.03;6.60;;;;;;;16.85;74.56;100166.47;6313177;22;20003;-79
2021/07/13 04:01:49;;;;;;;7.20;6.72;;;;;;;16.81;74.55;100169.06;6282469;22;20029;-79
2021/07/13 04:04:14;;;;;;;5.80;5.50;;;;;;;16.72;74.81;100169.00;6284013;22;20086;-79
2021/07/13 04:06:45;;;;;;;6.00;5.60;;;;;;;16.72;74.84;100184.78;6281234;22;20003;-80
2021/07/13 04:09:10;;;;;;;5.82;5.53;;;;;;;16.66;75.24;100180.47;6235642;22;20011;-79
2021/07/13 04:11:36;;;;;;;4.18;3.97;;;;;;;16.60;75.12;100176.22;6260556;22;20015;-79
2021/07/13 04:14:02;;;;;;;5.78;5.45;;;;;;;16.67;75.15;100193.16;6282585;22;19999;-79
2021/07/13 04:16:29;;;;;;;4.60;4.35;;;;;;;16.59;75.26;100180.94;6286549;22;20339;-79
2021/07/13 04:18:55;;;;;;;5.07;4.68;;;;;;;16.65;75.20;100190.72;6283792;22;20078;-80
2021/07/13 04:21:23;;;;;;;7.05;6.65;;;;;;;16.65;75.37;100187.16;6285480;22;20010;-79
2021/07/13 04:23:51;;;;;;;7.35;6.85;;;;;;;16.57;75.26;100178.47;6258283;22;20007;-77
2021/07/13 04:26:17;;;;;;;5.80;5.40;;;;;;;16.58;75.48;100182.84;6284136;22;20311;-79
2021/07/13 04:28:43;;;;;;;4.82;4.28;;;;;;;16.67;75.53;100202.25;6309019;22;20014;-79
2021/07/13 04:31:08;;;;;;;5.90;5.60;;;;;;;16.71;75.39;100205.22;6282249;22;20373;-79
2021/07/13 04:33:34;;;;;;;5.95;5.55;;;;;;;16.70;75.25;100198.06;6313812;22;20058;-79
2021/07/13 04:35:59;;;;;;;6.65;6.25;;;;;;;16.74;75.60;100199.06;6306606;22;20010;-79
2021/07/13 04:38:25;;;;;;;5.45;5.15;;;;;;;16.71;75.32;100188.66;6307054;22;20014;-79
2021/07/13 04:40:50;;;;;;;6.85;6.40;;;;;;;16.70;75.50;100193.34;6256742;22;20334;-80
2021/07/13 04:43:16;;;;;;;5.88;5.47;;;;;;;16.69;75.35;100194.50;6256144;22;20017;-79
2021/07/13 04:45:41;;;;;;;6.72;6.22;;;;;;;16.72;75.34;100204.09;6284423;22;20026;-80
2021/07/13 04:48:07;;;;;;;9.35;8.45;;;;;;;16.74;75.72;100202.63;6307274;22;20456;-77
2021/07/13 04:50:33;;;;;;;7.95;7.43;;;;;;;16.77;75.45;100203.16;6279251;22;20057;-80
2021/07/13 04:52:59;;;;;;;9.10;8.07;;;;;;;16.75;75.59;100196.00;6305011;22;20010;-80
2021/07/13 04:55:24;;;;;;;6.72;6.32;;;;;;;16.77;75.53;100190.16;6305151;22;20083;-80
2021/07/13 04:57:50;;;;;;;7.00;6.47;;;;;;;16.77;75.56;100187.41;6299275;22;19999;-80
2021/07/13 05:00:15;;;;;;;6.03;5.68;;;;;;;16.93;75.37;100201.66;6278978;22;20007;-79
2021/07/13 05:02:42;;;;;;;6.07;5.68;;;;;;;16.99;75.22;100199.59;6304399;22;20332;-80
2021/07/13 05:05:10;;;;;;;7.35;6.88;;;;;;;17.10;75.27;100200.97;6304519;22;20006;-79
2021/07/13 05:07:43;;;;;;;6.43;5.97;;;;;;;17.19;75.45;100204.59;6274498;22;20003;-80
2021/07/13 05:10:13;;;;;;;5.95;5.55;;;;;;;17.28;75.34;100207.41;6301399;22;20014;-80
2021/07/13 05:12:39;;;;;;;6.13;5.75;;;;;;;17.35;75.00;100212.50;6302597;22;20045;-80
2021/07/13 05:15:07;;;;;;;6.05;5.53;;;;;;;17.45;75.10;100221.34;6274188;22;20690;-80
2021/07/13 05:17:33;;;;;;;5.93;5.53;;;;;;;17.54;74.74;100226.91;6277897;22;20046;-79
2021/07/13 05:19:58;;;;;;;5.85;5.40;;;;;;;17.61;74.10;100227.25;6305207;22;20003;-79
2021/07/13 05:22:24;;;;;;;5.32;4.93;;;;;;;17.71;74.02;100226.19;6305031;22;20029;-80
2021/07/13 05:24:50;;;;;;;5.93;5.53;;;;;;;17.76;74.00;100233.50;6302932;22;20071;-80
2021/07/13 05:27:17;;;;;;;4.85;4.55;;;;;;;17.84;73.39;100227.19;6304287;22;20015;-77
2021/07/13 05:29:43;;;;;;;4.70;4.50;;;;;;;17.95;73.65;100236.84;6276018;22;20011;-78
2021/07/13 05:32:09;;;;;;;4.78;4.47;;;;;;;18.00;73.21;100235.88;6274226;22;20061;-77
2021/07/13 05:34:34;;;;;;;6.15;5.75;;;;;;;18.02;73.08;100241.09;6297845;22;20008;-77
2021/07/13 05:36:59;;;;;;;6.13;5.70;;;;;;;18.03;72.67;100243.53;6304642;22;20003;-79
2021/07/13 05:39:25;;;;;;;5.13;4.82;;;;;;;18.09;72.95;100253.34;6278207;22;20767;-80
2021/07/13 05:41:50;;;;;;;6.53;6.03;;;;;;;18.15;72.21;100262.31;6298588;22;20011;-76
2021/07/13 05:44:16;;;;;;;5.28;4.97;;;;;;;18.21;72.44;100263.81;6274435;22;20049;-78
2021/07/13 05:46:41;;;;;;;5.05;4.65;;;;;;;18.25;71.90;100270.31;6277375;22;20017;-79
2021/07/13 05:49:07;;;;;;;4.63;4.43;;;;;;;18.30;71.69;100270.16;6273460;22;20011;-79
2021/07/13 05:51:32;;;;;;;5.60;5.30;;;;;;;18.38;71.46;100284.34;6302945;22;20069;-78
2021/07/13 05:53:58;;;;;;;5.55;5.25;;;;;;;18.36;71.74;100279.13;6273591;22;20089;-77
2021/07/13 05:56:27;;;;;;;4.18;4.05;;;;;;;18.36;71.89;100281.09;6274524;22;20096;-75
2021/07/13 05:59:05;;;;;;;6.07;5.78;;;;;;;18.45;71.65;100293.00;6272903;22;20327;-77
2021/07/13 06:01:30;;;;;;;6.85;6.32;;;;;;;18.51;71.16;100286.16;6302673;22;20483;-76
2021/07/13 06:03:59;;;;;;;5.75;5.45;;;;;;;18.51;71.08;100279.81;6278145;22;20039;-79
2021/07/13 06:06:27;;;;;;;5.72;5.43;;;;;;;18.62;71.14;100286.69;6269643;22;20011;-79
2021/07/13 06:08:52;;;;;;;4.88;4.57;;;;;;;18.78;70.75;100296.13;6253954;22;20489;-79
2021/07/13 06:11:18;;;;;;;3.75;3.63;;;;;;;18.92;70.90;100301.53;6239787;22;20027;-78
2021/07/13 06:13:46;;;;;;;4.28;3.97;;;;;;;18.99;70.26;100296.34;6274381;22;20006;-77
2021/07/13 06:16:11;;;;;;;4.07;3.88;;;;;;;19.08;69.53;100303.84;6271003;22;20015;-77
2021/07/13 06:18:46;;;;;;;4.10;3.90;;;;;;;19.06;69.81;100300.59;6245455;22;20322;-77
2021/07/13 06:21:11;;;;;;;2.53;2.42;;;;;;;19.14;69.17;100316.38;6273474;22;20445;-75
2021/07/13 06:23:37;;;;;;;3.08;2.88;;;;;;;19.15;69.59;100318.81;6264517;22;20004;-79
2021/07/13 06:26:02;;;;;;;2.63;2.53;;;;;;;19.15;68.97;100318.03;6277436;22;20024;-78
2021/07/13 06:28:28;;;;;;;2.05;1.95;;;;;;;19.17;69.05;100318.50;6274880;22;20007;-77
2021/07/13 06:30:54;;;;;;;2.85;2.60;;;;;;;19.30;69.72;100323.06;6273835;22;20011;-79
2021/07/13 06:33:19;;;;;;;2.90;2.70;;;;;;;19.46;68.92;100326.13;6274485;22;20004;-79
2021/07/13 06:35:46;;;;;;;3.67;3.45;;;;;;;19.61;69.00;100333.16;6271929;22;20010;-78
2021/07/13 06:38:12;;;;;;;3.58;3.35;;;;;;;19.76;68.59;100342.09;6269349;22;20117;-77
2021/07/13 06:40:37;;;;;;;2.60;2.50;;;;;;;19.87;68.36;100335.06;6270866;22;20031;-80
2021/07/13 06:43:03;;;;;;;3.08;2.97;;;;;;;20.02;68.41;100345.63;6270956;22;20007;-80
2021/07/13 06:45:36;;;;;;;4.15;3.85;;;;;;;20.17;68.21;100343.44;6244628;22;20014;-79
2021/07/13 06:48:02;;;;;;;3.65;3.38;;;;;;;20.20;67.72;100349.13;6274533;22;20007;-77
2021/07/13 06:50:28;;;;;;;4.07;3.88;;;;;;;20.09;67.52;100335.97;6282697;22;20003;-79
2021/07/13 06:52:54;;;;;;;5.88;3.70;;;;;;;20.13;66.87;100343.28;6274874;22;20018;-81
2021/07/13 06:55:28;;;;;;;5.32;4.80;;;;;;;20.05;66.71;100342.19;6251075;22;20303;-79
2021/07/13 06:57:53;;;;;;;4.25;3.95;;;;;;;20.09;66.96;100344.28;6248522;22;20326;-78
2021/07/13 07:00:23;;;;;;;3.53;3.40;;;;;;;20.06;67.14;100348.53;6276664;22;20022;-78
2021/07/13 07:02:49;;;;;;;4.63;4.18;;;;;;;20.19;66.54;100346.69;6270480;22;20438;-78
2021/07/13 07:05:15;;;;;;;6.00;5.50;;;;;;;20.32;66.71;100345.66;6275972;22;20000;-79
2021/07/13 07:07:48;;;;;;;7.70;6.18;;;;;;;20.53;66.81;100353.22;6274609;22;20013;-79
2021/07/13 07:10:15;;;;;;;7.35;6.75;;;;;;;20.63;66.08;100355.59;6273723;22;20007;-79
2021/07/13 07:12:44;;;;;;;6.30;5.90;;;;;;;20.70;65.60;100355.94;6270704;22;20577;-77
2021/07/13 07:15:13;;;;;;;6.70;5.00;;;;;;;20.82;65.71;100357.16;6302684;22;20010;-79
2021/07/13 07:17:55;;;;;;;4.97;4.65;;;;;;;20.95;65.03;100344.97;6304833;22;19999;-80
2021/07/13 07:20:27;;;;;;;5.35;4.95;;;;;;;21.13;64.50;100353.19;6277265;22;20007;-79
2021/07/13 07:22:53;;;;;;;4.40;4.20;;;;;;;21.26;64.27;100349.31;6275469;22;20440;-79
2021/07/13 07:25:19;;;;;;;3.78;3.58;;;;;;;21.45;64.21;100352.41;6278036;22;20406;-80
2021/07/13 07:27:46;;;;;;;4.40;4.20;;;;;;;21.67;63.68;100357.97;6300331;22;20306;-80
2021/07/13 07:30:14;;;;;;;4.35;4.15;;;;;;;21.84;62.91;100354.19;6271141;22;20444;-80
2021/07/13 07:32:40;;;;;;;3.92;3.72;;;;;;;21.90;62.38;100361.16;6272940;22;20588;-79
2021/07/13 07:35:08;;;;;;;5.25;4.95;;;;;;;21.89;61.80;100359.53;6270312;22;20013;-79
2021/07/13 07:37:34;;;;;;;3.85;3.65;;;;;;;21.85;62.05;100375.31;6276937;22;20007;-79
2021/07/13 07:40:00;;;;;;;3.28;3.10;;;;;;;21.79;61.83;100367.16;6250254;22;20027;-79
2021/07/13 07:42:26;;;;;;;2.88;2.70;;;;;;;21.81;62.19;100368.81;6278368;22;20004;-78
2021/07/13 07:44:51;;;;;;;2.05;1.95;;;;;;;21.85;62.45;100358.63;6272746;22;20041;-79
2021/07/13 07:47:17;;;;;;;2.67;2.58;;;;;;;22.02;61.91;100364.00;6275467;22;20007;-79
2021/07/13 07:49:42;;;;;;;4.10;4.00;;;;;;;22.18;61.56;100360.50;6297250;22;20003;-79
2021/07/13 07:52:08;;;;;;;3.75;3.55;;;;;;;22.21;61.35;100357.88;6296844;22;20007;-79
2021/07/13 07:54:33;;;;;;;3.40;3.30;;;;;;;22.22;61.17;100351.09;6253529;22;20011;-78
2021/07/13 07:56:59;;;;;;;2.90;2.70;;;;;;;22.23;60.96;100346.38;6300990;22;20338;-79
2021/07/13 07:59:24;;;;;;;2.95;2.85;;;;;;;22.39;60.78;100354.88;6255882;22;20084;-79
2021/07/13 08:01:50;;;;;;;3.67;3.47;;;;;;;22.60;60.18;100354.75;6300575;22;20054;-79
2021/07/13 08:04:16;;;;;;;3.60;3.20;;;;;;;22.75;59.25;100351.25;6307257;22;20003;-78
2021/07/13 08:06:41;;;;;;;3.13;3.00;;;;;;;22.96;59.12;100350.28;6315053;22;20014;-79
2021/07/13 08:09:07;;;;;;;2.97;2.78;;;;;;;23.17;58.98;100356.53;6288500;22;20014;-79
2021/07/13 08:11:34;;;;;;;2.63;2.53;;;;;;;23.36;58.49;100357.84;6273834;22;20058;-79
2021/07/13 08:14:00;;;;;;;5.70;3.90;;;;;;;23.46;56.33;100362.94;6273303;22;20008;-79
2021/07/13 08:16:26;;;;;;;3.10;2.90;;;;;;;23.53;57.57;100354.75;6269036;22;20008;-80
2021/07/13 08:18:52;;;;;;;2.05;1.95;;;;;;;23.71;57.51;100368.41;6270863;22;20413;-79
2021/07/13 08:21:19;;;;;;;2.15;2.05;;;;;;;23.92;56.51;100361.78;6272252;22;20007;-77
2021/07/13 08:23:46;;;;;;;2.67;2.58;;;;;;;24.05;56.58;100366.16;6274427;22;20004;-80
2021/07/13 08:26:11;;;;;;;2.72;2.53;;;;;;;24.16;55.11;100374.81;6247304;22;20355;-78
2021/07/13 08:28:37;;;;;;;2.28;2.00;;;;;;;24.16;54.99;100372.00;6271110;22;20014;-80
2021/07/13 08:31:02;;;;;;;2.47;2.28;;;;;;;24.10;54.79;100379.03;6268317;22;20008;-79
2021/07/13 08:33:28;;;;;;;2.92;2.72;;;;;;;24.10;54.30;100368.66;6273309;22;20423;-79
2021/07/13 08:35:53;;;;;;;1.10;1.10;;;;;;;24.12;54.94;100376.69;6270519;22;20145;-79
2021/07/13 08:38:18;;;;;;;1.80;1.70;;;;;;;24.16;54.68;100378.41;6243069;22;20426;-79
2021/07/13 08:40:45;;;;;;;1.30;1.30;;;;;;;24.15;54.39;100370.38;6244002;22;20011;-80
2021/07/13 08:43:11;;;;;;;1.20;1.20;;;;;;;24.26;54.54;100376.25;6273392;22;20007;-80
2021/07/13 08:45:37;;;;;;;1.58;1.48;;;;;;;24.33;54.92;100373.66;6274557;22;20010;-79
2021/07/13 08:48:03;;;;;;;2.28;2.17;;;;;;;24.37;53.31;100368.94;6268434;22;20010;-79
2021/07/13 08:50:28;;;;;;;1.50;1.40;;;;;;;24.39;53.66;100380.56;6271793;22;20004;-79
2021/07/13 08:52:54;;;;;;;1.92;1.83;;;;;;;24.46;53.60;100372.38;6273547;22;20465;-80
2021/07/13 08:55:19;;;;;;;1.58;1.48;;;;;;;24.57;53.58;100370.66;6272848;22;20007;-79
2021/07/13 08:57:45;;;;;;;1.13;1.13;;;;;;;24.67;53.40;100374.09;6267376;22;20008;-78
2021/07/13 09:00:17;;;;;;;1.30;1.30;;;;;;;24.69;53.57;100378.16;6275648;22;20008;-80
2021/07/13 09:03:12;;;;;;;1.73;1.63;;;;;;;24.77;53.15;100383.91;6267619;22;19999;-79
2021/07/13 09:05:45;;;;;;;1.67;1.58;;;;;;;24.72;52.61;100382.19;6273024;22;20071;-79
2021/07/13 09:08:31;;;;;;;1.70;1.60;;;;;;;24.65;52.37;100377.25;6272127;22;20014;-80
2021/07/13 09:10:59;;;;;;;2.05;2.00;;;;;;;24.54;51.73;100371.34;6282097;22;20007;-79
2021/07/13 09:13:26;;;;;;;1.83;1.73;;;;;;;24.50;51.71;100375.22;6293244;22;20023;-80
2021/07/13 09:15:56;;;;;;;1.65;1.55;;;;;;;24.54;52.25;100376.94;6265703;22;20064;-78
2021/07/13 09:18:33;;;;;;;1.60;1.60;;;;;;;24.65;52.27;100376.41;6292763;22;20007;-79
2021/07/13 09:21:35;;;;;;;1.63;1.52;;;;;;;24.74;52.54;100374.25;6295936;22;19988;-78
2021/07/13 09:24:17;;;;;;;1.33;1.23;;;;;;;24.74;52.67;100374.25;6274911;22;20011;-80
2021/07/13 09:26:54;;;;;;;0.88;0.88;;;;;;;24.99;53.06;100363.63;6276262;22;20031;-79
2021/07/13 09:29:42;;;;;;;1.77;1.67;;;;;;;25.34;51.72;100378.78;6266291;22;20457;-80
2021/07/13 09:32:31;;;;;;;0.75;0.75;;;;;;;25.74;52.01;100363.56;6269105;22;20007;-79
2021/07/13 09:35:03;;;;;;;1.27;1.27;;;;;;;26.18;50.31;100366.00;6274762;22;20079;-80
2021/07/13 09:37:34;;;;;;;1.42;1.42;;;;;;;26.31;49.21;100358.19;6274859;22;20003;-79
2021/07/13 09:40:06;;;;;;;1.00;1.00;;;;;;;26.43;48.77;100372.03;6276746;22;20004;-80
2021/07/13 09:42:41;;;;;;;0.65;0.65;;;;;;;26.45;48.24;100368.84;6275554;22;20008;-81
2021/07/13 09:45:15;;;;;;;0.55;0.40;;;;;;;26.54;48.13;100371.38;6275709;22;20411;-79
2021/07/13 09:47:42;;;;;;;0.90;0.90;;;;;;;26.46;47.30;100367.66;6276127;22;20015;-79
2021/07/13 09:50:11;;;;;;;0.50;0.50;;;;;;;26.46;47.32;100360.06;6266769;22;20030;-80
2021/07/13 09:52:37;;;;;;;0.60;0.60;;;;;;;26.55;47.43;100357.00;6277281;22;20011;-79
2021/07/13 09:55:17;;;;;;;0.50;0.50;;;;;;;26.74;47.38;100355.31;6274257;22;20005;-80
2021/07/13 09:57:43;;;;;;;0.70;0.70;;;;;;;26.73;47.05;100348.06;6273370;22;20003;-79
2021/07/13 10:00:09;;;;;;;0.57;0.57;;;;;;;26.83;46.95;100355.81;6265399;22;20003;-79
2021/07/13 10:02:35;;;;;;;0.50;0.50;;;;;;;26.91;46.31;100356.72;6250302;22;20269;-80
2021/07/13 10:05:04;;;;;;;0.60;0.60;;;;;;;27.09;46.28;100365.41;6273055;22;20003;-80
2021/07/13 10:07:32;;;;;;;0.60;0.60;;;;;;;27.42;45.92;100363.84;6275581;22;20011;-80
2021/07/13 10:10:03;;;;;;;0.40;0.40;;;;;;;27.67;45.54;100369.72;6271851;22;20335;-80
2021/07/13 10:12:29;;;;;;;0.40;0.40;;;;;;;27.69;43.92;100370.97;6275748;22;20015;-80
2021/07/13 10:14:57;;;;;;;1.27;0.52;;;;;;;27.76;43.98;100372.22;6275591;22;20010;-79
2021/07/13 10:17:28;;;;;;;0.68;0.68;;;;;;;27.91;44.00;100365.56;6276058;22;20480;-78
2021/07/13 10:19:58;;;;;;;0.30;0.30;;;;;;;28.11;43.52;100368.19;6273515;22;20073;-78
2021/07/13 10:22:26;;;;;;;0.82;0.40;;;;;;;28.34;43.56;100357.56;6275079;22;20003;-78
2021/07/13 10:24:56;;;;;;;0.30;0.30;;;;;;;28.64;42.35;100365.03;6265473;22;20024;-78
2021/07/13 10:27:32;;;;;;;0.28;0.28;;;;;;;28.66;42.29;100367.44;6274485;22;20018;-78
2021/07/13 10:30:08;;;;;;;0.50;0.50;;;;;;;28.51;42.41;100372.94;6275099;22;20057;-78
2021/07/13 10:32:38;;;;;;;0.43;0.43;;;;;;;28.34;42.80;100366.00;6275685;22;20407;-78
2021/07/13 10:35:23;;;;;;;0.30;0.30;;;;;;;28.26;42.55;100378.38;6276710;22;20379;-78
2021/07/13 10:37:50;;;;;;;0.30;0.30;;;;;;;28.61;42.72;100377.06;6275362;22;20054;-79
2021/07/13 10:40:39;;;;;;;0.20;0.20;;;;;;;29.03;41.78;100387.00;6270530;22;20446;-79
2021/07/13 10:43:14;;;;;;;0.40;0.40;;;;;;;29.07;41.41;100387.00;6249316;22;20022;-78
2021/07/13 10:45:42;;;;;;;0.40;0.40;;;;;;;29.39;40.37;100387.16;6268053;22;20491;-79
2021/07/13 10:48:10;;;;;;;0.38;0.38;;;;;;;29.77;40.41;100382.09;6271018;22;20061;-79
2021/07/13 10:50:54;;;;;;;0.50;0.50;;;;;;;30.35;40.11;100393.44;6274321;22;19999;-79
2021/07/13 10:53:24;;;;;;;0.30;0.30;;;;;;;30.70;39.00;100389.03;6276361;22;20053;-79
2021/07/13 10:55:52;;;;;;;1.10;0.40;;;;;;;30.68;37.94;100393.44;6265721;22;20007;-77
2021/07/13 10:58:44;;;;;;;2.03;0.70;;;;;;;30.54;38.21;100397.09;6270916;22;20057;-78
2021/07/13 11:01:15;;;;;;;0.82;0.82;;;;;;;30.18;37.39;100402.69;6271029;22;20082;-77
2021/07/13 11:03:41;;;;;;;0.50;0.50;;;;;;;29.90;37.77;100395.81;6274648;22;20007;-81
2021/07/13 11:06:08;;;;;;;0.50;0.50;;;;;;;29.96;38.81;100397.03;6266265;22;20003;-80
2021/07/13 11:08:56;;;;;;;0.52;0.52;;;;;;;30.41;38.74;100403.13;6273861;22;20011;-80
2021/07/13 11:11:28;;;;;;;0.35;0.35;;;;;;;30.61;37.14;100402.75;6273253;22;20306;-80
2021/07/13 11:14:15;;;;;;;1.65;0.50;;;;;;;30.40;37.10;100404.34;6303597;22;19995;-80
2021/07/13 11:16:55;;;;;;;0.20;0.20;;;;;;;30.09;37.52;100394.63;6306046;22;20099;-80
2021/07/13 11:20:28;;;;;;;0.30;0.30;;;;;;;29.91;37.89;100406.69;6280365;22;20057;-80
2021/07/13 11:22:53;;;;;;;0.40;0.40;;;;;;;29.41;37.34;100404.50;6256777;22;20029;-80
2021/07/13 11:25:23;;;;;;;0.30;0.30;;;;;;;29.21;38.56;100409.59;6272374;22;20030;-80
2021/07/13 11:28:00;;;;;;;0.40;0.40;;;;;;;29.48;39.19;100405.72;6277373;22;20003;-80
2021/07/13 11:30:26;;;;;;;0.20;0.20;;;;;;;30.90;40.80;100403.50;6283669;22;20028;-79
2021/07/13 11:33:02;;;;;;;0.30;0.20;;;;;;;32.88;38.46;100396.75;6318816;22;20735;-78
2021/07/13 11:35:27;;;;;;;0.22;0.20;;;;;;;33.37;34.58;100409.97;6317935;22;20000;-80
2021/07/13 11:37:57;;;;;;;0.20;0.20;;;;;;;33.81;34.70;100411.03;6289058;22;20393;-79
2021/07/13 11:40:22;;;;;;;0.20;0.15;;;;;;;34.69;33.60;100411.28;6319169;22;20007;-79
2021/07/13 11:43:01;;;;;;;0.20;0.20;;;;;;;34.79;32.09;100411.09;6318279;22;20014;-79